Time;durP1;ratioP1;P1;durP2;ratioP2;P2;SDS_P1;SDS_P2;PMS_P1;PMS_P2;Temp;Humidity;BMP_temperature;BMP_pressure;BME280_temperature;BME280_humidity;BME280_pressure;Samples;Min_cycle;Max_cycle;Signal;HPM_P1;HPM_P2
2023/08/08 00:00:21;;;;;;;3.92;1.15;;;;;;;14.71;100.00;99881.97;7392860;19;20655;-57
2023/08/08 00:02:47;;;;;;;2.47;1.60;;;;;;;14.68;100.00;99883.00;7390801;19;20459;-58
2023/08/08 00:05:13;;;;;;;1.25;1.15;;;;;;;25.00;89.93;99863.47;7392180;19;20070;-57
2023/08/08 00:07:39;;;;;;;2.72;0.80;;;;;;;30.33;52.65;99862.59;7393672;19;20044;-57
2023/08/08 00:10:06;;;;;;;1.77;0.88;;;;;;;35.81;40.68;99862.81;7392292;19;20036;-57
2023/08/08 00:12:32;;;;;;;4.25;0.50;;;;;;;36.77;36.98;99857.75;7403259;19;20022;-57
2023/08/08 00:14:59;;;;;;;1.80;0.73;;;;;;;36.23;36.57;99852.44;7401097;19;20018;-58
2023/08/08 00:17:25;;;;;;;0.30;0.30;;;;;;;36.83;34.84;99849.28;7399174;19;20021;-57
2023/08/08 00:19:51;;;;;;;0.70;0.40;;;;;;;37.30;33.54;99842.47;7400491;19;20013;-57
2023/08/08 00:22:17;;;;;;;0.20;0.20;;;;;;;34.80;34.17;99831.06;7402350;19;20015;-57
2023/08/08 00:24:43;;;;;;;7.53;0.60;;;;;;;21.21;73.74;99856.03;7397797;19;20037;-57
2023/08/08 00:27:09;;;;;;;1.02;0.98;;;;;;;17.16;100.00;99860.91;7398018;19;20480;-57
2023/08/08 00:29:36;;;;;;;21.85;1.50;;;;;;;15.93;100.00;99866.16;7401148;19;20455;-57
2023/08/08 00:32:02;;;;;;;1.00;0.95;;;;;;;18.22;100.00;99853.13;7402487;19;20010;-57
2023/08/08 00:34:28;;;;;;;1.58;0.65;;;;;;;34.51;41.67;99825.22;7398788;19;20010;-57
2023/08/08 00:36:54;;;;;;;5.78;0.77;;;;;;;28.11;51.19;99836.88;7397823;19;20015;-57
2023/08/08 00:39:20;;;;;;;3.55;2.13;;;;;;;19.91;79.25;99844.16;7398636;19;20021;-57
2023/08/08 00:41:47;;;;;;;2.75;1.40;;;;;;;13.40;100.00;99861.72;7401236;19;20354;-57
2023/08/08 00:44:14;;;;;;;3.53;0.85;;;;;;;11.51;100.00;99860.47;7396016;19;20466;-58
2023/08/08 00:46:40;;;;;;;0.60;0.60;;;;;;;14.06;100.00;99843.91;7395970;19;20070;-58
2023/08/08 00:49:07;;;;;;;2.40;1.73;;;;;;;14.21;100.00;99844.50;7400421;19;20010;-58
2023/08/08 00:51:33;;;;;;;0.93;0.93;;;;;;;13.09;100.00;99850.47;7401039;19;20018;-57
2023/08/08 00:54:00;;;;;;;9.73;0.52;;;;;;;10.37;100.00;99862.06;7397599;19;20455;-57
2023/08/08 00:56:26;;;;;;;1.85;1.27;;;;;;;12.51;100.00;99859.19;7397885;19;20011;-57
2023/08/08 00:58:54;;;;;;;8.02;2.05;;;;;;;13.32;100.00;99851.47;7401965;19;20035;-57
2023/08/08 01:01:21;;;;;;;2.47;0.85;;;;;;;13.45;100.00;99852.59;7398612;19;20006;-57
2023/08/08 01:03:48;;;;;;;0.88;0.88;;;;;;;13.49;100.00;99853.16;7395614;19;20015;-58
2023/08/08 01:06:21;;;;;;;2.28;1.45;;;;;;;13.45;100.00;99847.00;7396660;19;20356;-57
2023/08/08 01:09:29;;;;;;;0.40;0.40;;;;;;;13.56;100.00;99840.75;7399286;19;20075;-57
2023/08/08 01:11:56;;;;;;;0.20;0.20;;;;;;;13.52;100.00;99835.38;7398359;19;20022;-57
2023/08/08 01:14:26;;;;;;;8.88;0.88;;;;;;;13.64;100.00;99837.00;7394442;19;20023;-57
2023/08/08 01:16:57;;;;;;;0.50;0.50;;;;;;;13.66;100.00;99834.47;7396997;19;20014;-57
2023/08/08 01:19:28;;;;;;;5.70;0.60;;;;;;;13.67;100.00;99827.63;7397753;19;20375;-57
2023/08/08 01:21:58;;;;;;;0.70;0.70;;;;;;;13.73;100.00;99824.84;7399306;19;20010;-57
2023/08/08 01:24:28;;;;;;;0.25;0.25;;;;;;;13.77;100.00;99821.84;7394026;19;20015;-57
2023/08/08 01:26:56;;;;;;;0.82;0.50;;;;;;;13.76;100.00;99823.09;7397220;19;20754;-57
2023/08/08 01:29:22;;;;;;;1.55;0.55;;;;;;;13.67;100.00;99813.63;7399046;19;20010;-57
2023/08/08 01:31:48;;;;;;;0.30;0.30;;;;;;;13.59;100.00;99812.53;7399798;19;20010;-57
2023/08/08 01:34:14;;;;;;;6.57;1.02;;;;;;;13.55;100.00;99812.00;7397139;19;20025;-57
2023/08/08 01:37:02;;;;;;;0.82;0.40;;;;;;;13.65;100.00;99804.97;7395486;19;20014;-58
2023/08/08 01:39:32;;;;;;;0.52;0.50;;;;;;;13.68;100.00;99811.59;7397866;19;20007;-57
2023/08/08 01:42:00;;;;;;;0.77;0.43;;;;;;;13.63;100.00;99801.13;7395496;19;20044;-58
2023/08/08 01:44:28;;;;;;;0.73;0.63;;;;;;;13.56;100.00;99802.34;7395706;19;20020;-58
2023/08/08 01:46:54;;;;;;;0.40;0.40;;;;;;;13.52;100.00;99801.03;7395312;19;20014;-58
2023/08/08 01:49:20;;;;;;;1.75;1.05;;;;;;;13.50;100.00;99797.97;7397087;19;20029;-58
2023/08/08 01:51:48;;;;;;;3.53;0.60;;;;;;;13.50;100.00;99803.56;7396390;19;20011;-58
2023/08/08 01:54:14;;;;;;;0.25;0.25;;;;;;;13.45;100.00;99802.25;7396296;19;20024;-57
2023/08/08 01:56:40;;;;;;;1.95;0.65;;;;;;;13.45;100.00;99801.47;7397660;19;20015;-58
2023/08/08 01:59:06;;;;;;;0.43;0.43;;;;;;;13.34;100.00;99799.34;7396888;19;20366;-58
2023/08/08 02:01:33;;;;;;;2.47;1.42;;;;;;;13.30;100.00;99801.63;7394996;19;20014;-58
2023/08/08 02:03:59;;;;;;;0.50;0.50;;;;;;;13.26;100.00;99812.25;7395285;19;20015;-58
2023/08/08 02:06:27;;;;;;;0.30;0.30;;;;;;;13.25;100.00;99807.19;7395244;19;20010;-58
2023/08/08 02:08:53;;;;;;;0.45;0.45;;;;;;;13.23;100.00;99793.66;7398759;19;20010;-58
2023/08/08 02:11:19;;;;;;;1.00;0.80;;;;;;;13.17;100.00;99795.66;7396949;19;20023;-58
2023/08/08 02:13:45;;;;;;;0.38;0.38;;;;;;;13.16;100.00;99796.16;7395534;19;20404;-58
2023/08/08 02:16:11;;;;;;;0.32;0.32;;;;;;;13.16;100.00;99796.16;7393818;19;20075;-58
2023/08/08 02:18:41;;;;;;;5.05;0.85;;;;;;;13.15;100.00;99795.38;7395234;19;20007;-58
2023/08/08 02:21:07;;;;;;;0.60;0.60;;;;;;;13.13;100.00;99792.31;7396720;19;20507;-58
2023/08/08 02:23:34;;;;;;;1.10;1.10;;;;;;;29.03;68.63;99762.09;7395408;19;20006;-58
2023/08/08 02:26:01;;;;;;;0.70;0.70;;;;;;;17.40;100.00;99790.63;7394997;19;20364;-58
2023/08/08 02:28:27;;;;;;;5.78;0.75;;;;;;;15.31;100.00;99792.91;7397911;19;20006;-58
2023/08/08 02:30:53;;;;;;;2.40;1.02;;;;;;;15.71;100.00;99789.59;7395414;19;20459;-58
2023/08/08 02:33:20;;;;;;;0.98;0.80;;;;;;;15.72;100.00;99794.69;7396525;19;20023;-58
2023/08/08 02:35:46;;;;;;;3.05;1.33;;;;;;;15.46;100.00;99790.63;7393915;19;20018;-58
2023/08/08 02:38:13;;;;;;;1.20;0.80;;;;;;;15.43;100.00;99788.81;7393454;19;20010;-58
2023/08/08 02:40:40;;;;;;;1.92;0.77;;;;;;;15.29;100.00;99792.66;7394437;19;20387;-58
2023/08/08 02:43:09;;;;;;;2.95;1.02;;;;;;;15.14;100.00;99790.84;7393141;19;20074;-58
2023/08/08 02:45:35;;;;;;;0.20;0.20;;;;;;;15.10;100.00;99783.94;7394997;19;20014;-58
2023/08/08 02:48:01;;;;;;;1.50;1.10;;;;;;;15.22;100.00;99777.06;7393236;19;20351;-58
2023/08/08 02:50:28;;;;;;;0.95;0.60;;;;;;;15.09;100.00;99777.56;7394189;19;20010;-58
2023/08/08 02:52:54;;;;;;;0.52;0.52;;;;;;;30.82;56.99;99748.69;7394165;19;20074;-57
2023/08/08 02:55:24;;;;;;;0.90;0.90;;;;;;;23.11;86.76;99760.34;7393701;19;20343;-58
2023/08/08 02:57:51;;;;;;;3.78;1.02;;;;;;;35.17;40.37;99747.50;7394787;19;20014;-58
2023/08/08 03:00:17;;;;;;;0.55;0.52;;;;;;;38.19;31.78;99736.13;7391917;19;20010;-58
2023/08/08 03:02:48;;;;;;;0.52;0.52;;;;;;;28.64;39.58;99740.59;7392076;19;20099;-58
2023/08/08 03:05:15;;;;;;;0.47;0.47;;;;;;;34.21;37.68;99738.38;7393033;19;20006;-58
2023/08/08 03:07:41;;;;;;;1.95;0.47;;;;;;;15.45;100.00;99775.81;7392841;19;20034;-58
2023/08/08 03:10:08;;;;;;;0.57;0.50;;;;;;;10.80;100.00;99788.28;7393490;19;20035;-58
2023/08/08 03:12:37;;;;;;;0.95;0.50;;;;;;;9.39;100.00;99794.56;7396941;19;20015;-58
2023/08/08 03:15:04;;;;;;;0.63;0.63;;;;;;;8.69;100.00;99793.81;7394558;19;20006;-58
2023/08/08 03:17:30;;;;;;;0.10;0.10;;;;;;;12.41;100.00;99804.72;7394960;19;20024;-58
2023/08/08 03:19:57;;;;;;;8.88;1.25;;;;;;;12.99;100.00;99787.59;7393378;19;20459;-58
2023/08/08 03:22:24;;;;;;;0.22;0.22;;;;;;;18.05;100.00;99782.84;7396862;19;20021;-59
2023/08/08 03:24:51;;;;;;;0.22;0.22;;;;;;;22.31;79.78;99776.69;7392992;19;20038;-58
2023/08/08 03:27:17;;;;;;;0.25;0.25;;;;;;;13.15;100.00;99789.78;7396084;19;20038;-59
2023/08/08 03:29:46;;;;;;;0.40;0.40;;;;;;;12.03;100.00;99791.78;7397066;19;20006;-58
2023/08/08 03:32:12;;;;;;;0.43;0.43;;;;;;;11.83;100.00;99798.09;7397286;19;20343;-58
2023/08/08 03:34:38;;;;;;;0.40;0.40;;;;;;;11.68;100.00;99800.16;7393409;19;20034;-58
2023/08/08 03:37:05;;;;;;;0.40;0.40;;;;;;;11.10;100.00;99789.06;7392184;19;20467;-58
2023/08/08 03:39:31;;;;;;;0.32;0.30;;;;;;;11.62;100.00;99796.50;7392472;19;20011;-58
2023/08/08 03:41:57;;;;;;;0.88;0.70;;;;;;;13.97;100.00;99790.91;7395653;19;20034;-58
2023/08/08 03:44:24;;;;;;;0.30;0.30;;;;;;;11.81;100.00;99797.06;7390100;19;20035;-58
2023/08/08 03:46:50;;;;;;;0.30;0.30;;;;;;;11.43;100.00;99795.94;7392100;19;20079;-58
2023/08/08 03:49:17;;;;;;;0.68;0.65;;;;;;;11.32;100.00;99800.59;7393673;19;20028;-58
2023/08/08 03:51:43;;;;;;;0.40;0.40;;;;;;;11.27;100.00;99804.03;7395839;19;20349;-58
2023/08/08 03:54:10;;;;;;;0.30;0.30;;;;;;;11.25;100.00;99798.94;7392277;19;20014;-58
2023/08/08 03:56:36;;;;;;;0.22;0.22;;;;;;;11.38;100.00;99790.28;7392351;19;20018;-58
2023/08/08 03:59:02;;;;;;;1.45;0.60;;;;;;;11.08;100.00;99791.56;7392592;19;20230;-58
2023/08/08 04:01:28;;;;;;;4.38;1.00;;;;;;;10.83;100.00;99786.56;7394355;19;20018;-58
2023/08/08 04:03:55;;;;;;;0.57;0.38;;;;;;;10.80;100.00;99793.06;7391970;19;20010;-58
2023/08/08 04:06:21;;;;;;;0.20;0.20;;;;;;;10.76;100.00;99787.69;7391245;19;20367;-58
2023/08/08 04:08:48;;;;;;;0.22;0.22;;;;;;;10.74;100.00;99779.06;7391587;19;20010;-58
2023/08/08 04:11:14;;;;;;;0.40;0.40;;;;;;;10.67;100.00;99773.84;7393273;19;20014;-58
2023/08/08 04:13:40;;;;;;;0.35;0.30;;;;;;;10.82;100.00;99774.63;7396534;19;20035;-58
2023/08/08 04:16:07;;;;;;;0.20;0.20;;;;;;;11.34;100.00;99767.41;7391653;19;20519;-58
2023/08/08 04:18:33;;;;;;;0.20;0.20;;;;;;;20.28;100.00;99749.94;7393101;19;20017;-58
2023/08/08 04:20:59;;;;;;;0.30;0.30;;;;;;;14.40;100.00;99764.41;7394359;19;20345;-58
2023/08/08 04:23:25;;;;;;;0.10;0.10;;;;;;;12.42;100.00;99761.56;7392067;19;20011;-58
2023/08/08 04:25:53;;;;;;;0.20;0.20;;;;;;;14.87;100.00;99754.34;7390791;19;20050;-58
2023/08/08 04:28:19;;;;;;;1.23;0.30;;;;;;;12.36;100.00;99753.13;7394312;19;20010;-58
2023/08/08 04:30:45;;;;;;;0.30;0.30;;;;;;;12.10;100.00;99760.69;7391541;19;20368;-58
2023/08/08 04:33:11;;;;;;;0.60;0.50;;;;;;;11.92;100.00;99753.34;7391847;19;20007;-58
2023/08/08 04:35:37;;;;;;;0.77;0.60;;;;;;;12.33;100.00;99748.50;7391390;19;20014;-58
2023/08/08 04:38:04;;;;;;;2.75;0.50;;;;;;;16.12;100.00;99742.75;7392308;19;20031;-58
2023/08/08 04:40:30;;;;;;;0.10;0.10;;;;;;;27.26;75.21;99722.81;7392623;19;20015;-58
2023/08/08 04:42:56;;;;;;;0.20;0.20;;;;;;;31.33;51.80;99713.19;7391376;19;20010;-58
2023/08/08 04:45:22;;;;;;;0.80;0.60;;;;;;;33.25;44.10;99707.94;7392887;19;20074;-59
2023/08/08 04:47:48;;;;;;;5.47;0.95;;;;;;;24.32;52.28;99717.69;7391458;19;20043;-58
2023/08/08 04:50:14;;;;;;;0.30;0.28;;;;;;;32.40;45.90;99708.13;7390424;19;20006;-58
2023/08/08 04:52:40;;;;;;;2.42;0.63;;;;;;;23.18;57.46;99720.59;7390755;19;20017;-58
2023/08/08 04:55:07;;;;;;;0.22;0.22;;;;;;;30.39;54.52;99715.66;7392171;19;20023;-59
2023/08/08 04:57:33;;;;;;;2.17;1.00;;;;;;;29.82;43.94;99714.69;7393781;19;20471;-58
2023/08/08 05:00:04;;;;;;;0.25;0.25;;;;;;;15.85;100.00;99740.81;7398030;19;20352;-58
2023/08/08 05:02:30;;;;;;;0.20;0.20;;;;;;;14.03;100.00;99732.91;7399406;19;20030;-59
2023/08/08 05:04:57;;;;;;;0.22;0.22;;;;;;;24.83;90.25;99715.19;7398826;19;20018;-58
2023/08/08 05:07:23;;;;;;;0.10;0.10;;;;;;;18.98;89.40;99727.81;7398446;19;20034;-58
2023/08/08 05:09:49;;;;;;;0.90;0.40;;;;;;;14.21;100.00;99743.66;7400744;19;20015;-58
2023/08/08 05:12:15;;;;;;;0.13;0.13;;;;;;;13.15;100.00;99749.88;7396896;19;20406;-58
2023/08/08 05:14:41;;;;;;;0.45;0.30;;;;;;;12.72;100.00;99734.97;7396009;19;20015;-59
2023/08/08 05:17:07;;;;;;;0.20;0.20;;;;;;;12.56;100.00;99738.38;7398421;19;20450;-59
2023/08/08 05:19:33;;;;;;;1.05;0.55;;;;;;;12.46;100.00;99734.97;7398143;19;20029;-58
2023/08/08 05:22:00;;;;;;;0.20;0.20;;;;;;;12.42;100.00;99739.22;7401686;19;20014;-58
2023/08/08 05:24:26;;;;;;;0.40;0.40;;;;;;;12.42;100.00;99742.00;7395793;19;20021;-58
2023/08/08 05:26:56;;;;;;;1.75;0.60;;;;;;;12.37;100.00;99737.13;7398089;19;20019;-58
2023/08/08 05:29:22;;;;;;;0.45;0.45;;;;;;;12.36;100.00;99739.16;7400281;19;20055;-58
2023/08/08 05:31:48;;;;;;;3.80;0.55;;;;;;;12.42;100.00;99733.63;7401164;19;20033;-58
2023/08/08 05:34:14;;;;;;;1.00;0.52;;;;;;;12.36;100.00;99735.59;7397406;19;20018;-58
2023/08/08 05:36:40;;;;;;;0.38;0.38;;;;;;;12.42;100.00;99728.81;7395745;19;20017;-58
2023/08/08 05:39:07;;;;;;;1.85;0.40;;;;;;;12.37;100.00;99731.53;7397479;19;20097;-58
2023/08/08 05:41:33;;;;;;;8.77;0.93;;;;;;;12.43;100.00;99732.38;7400597;19;20014;-58
2023/08/08 05:43:59;;;;;;;0.17;0.17;;;;;;;12.53;100.00;99733.75;7393462;19;20003;-58
2023/08/08 05:46:25;;;;;;;1.90;1.20;;;;;;;11.86;100.00;99738.56;7395573;19;20014;-58
2023/08/08 05:48:51;;;;;;;0.47;0.32;;;;;;;12.52;100.00;99727.41;7394691;19;20011;-58
2023/08/08 05:51:17;;;;;;;0.85;0.45;;;;;;;12.57;100.00;99720.34;7399739;19;20014;-58
2023/08/08 05:53:44;;;;;;;1.58;0.43;;;;;;;12.81;100.00;99716.00;7397204;19;20459;-58
2023/08/08 05:56:10;;;;;;;6.13;0.93;;;;;;;12.75;100.00;99729.19;7397554;19;20075;-58
2023/08/08 05:58:39;;;;;;;12.57;0.80;;;;;;;20.68;100.00;99723.06;7400868;19;20011;-58
2023/08/08 06:01:11;;;;;;;0.43;0.30;;;;;;;19.48;100.00;99724.97;7399031;19;20034;-58
2023/08/08 06:03:37;;;;;;;1.65;0.88;;;;;;;16.17;100.00;99719.50;7395824;19;20022;-58
2023/08/08 06:06:04;;;;;;;0.30;0.30;;;;;;;16.18;100.00;99712.59;7395286;19;20455;-58
2023/08/08 06:08:31;;;;;;;0.10;0.10;;;;;;;15.02;100.00;99710.78;7394229;19;20055;-58
2023/08/08 06:10:58;;;;;;;0.22;0.22;;;;;;;15.67;100.00;99705.63;7396567;19;20689;-58
2023/08/08 06:13:24;;;;;;;1.15;0.65;;;;;;;32.42;54.02;99679.41;7394014;19;20363;-58
2023/08/08 06:15:50;;;;;;;2.60;0.50;;;;;;;17.09;100.00;99706.69;7393873;19;20015;-58
2023/08/08 06:18:17;;;;;;;0.60;0.47;;;;;;;32.41;53.70;99677.19;7395954;19;20026;-58
2023/08/08 06:20:43;;;;;;;0.20;0.10;;;;;;;34.92;43.71;99678.25;7397993;19;20014;-59
2023/08/08 06:23:10;;;;;;;0.50;0.30;;;;;;;35.65;40.56;99673.66;7395956;19;20450;-58
2023/08/08 06:25:38;;;;;;;0.82;0.55;;;;;;;33.78;39.92;99682.66;7396346;19;20043;-58
2023/08/08 06:28:06;;;;;;;0.30;0.20;;;;;;;32.82;51.04;99678.88;7398892;19;20017;-58
2023/08/08 06:30:32;;;;;;;1.30;0.95;;;;;;;27.31;59.21;99684.59;7396261;19;20095;-58
2023/08/08 06:32:58;;;;;;;0.60;0.52;;;;;;;35.73;39.65;99674.03;7395957;19;20074;-58
2023/08/08 06:35:24;;;;;;;0.50;0.50;;;;;;;37.05;36.58;99667.25;7395225;19;20014;-58
2023/08/08 06:37:50;;;;;;;1.23;0.40;;;;;;;37.73;34.57;99668.31;7395115;19;20451;-58
2023/08/08 06:40:17;;;;;;;0.10;0.10;;;;;;;37.51;33.93;99665.34;7394965;19;20033;-58
2023/08/08 06:42:43;;;;;;;0.38;0.30;;;;;;;37.64;33.35;99667.28;7393650;19;20018;-59
2023/08/08 06:45:09;;;;;;;0.45;0.40;;;;;;;37.54;32.69;99669.09;7394107;19;20469;-58
2023/08/08 06:47:36;;;;;;;0.30;0.22;;;;;;;37.30;32.63;99668.91;7395094;19;20018;-59
2023/08/08 06:50:03;;;;;;;0.20;0.20;;;;;;;36.97;32.70;99669.84;7395102;19;20014;-58
2023/08/08 06:52:29;;;;;;;0.20;0.20;;;;;;;36.67;33.00;99668.63;7394921;19;20027;-58
2023/08/08 06:54:55;;;;;;;0.65;0.65;;;;;;;37.01;32.48;99675.81;7394570;19;20463;-58
2023/08/08 06:57:21;;;;;;;0.50;0.30;;;;;;;36.08;33.57;99668.34;7396176;19;20414;-58
2023/08/08 06:59:50;;;;;;;4.63;1.35;;;;;;;37.08;32.43;99671.72;7395220;19;20463;-58
2023/08/08 07:02:17;;;;;;;0.82;0.82;;;;;;;36.04;34.17;99673.25;7399581;19;20014;-58
2023/08/08 07:04:44;;;;;;;1.75;1.65;;;;;;;37.46;32.14;99668.78;7392866;19;20463;-58
2023/08/08 07:07:10;;;;;;;1.45;0.90;;;;;;;37.29;32.32;99675.41;7394168;19;20011;-58
2023/08/08 07:09:37;;;;;;;1.38;0.63;;;;;;;37.31;32.43;99675.47;7393987;19;20030;-58
2023/08/08 07:12:04;;;;;;;0.50;0.20;;;;;;;36.35;33.94;99678.88;7397667;19;20351;-58
2023/08/08 07:14:30;;;;;;;0.73;0.73;;;;;;;37.78;32.38;99669.97;7393643;19;20025;-58
2023/08/08 07:16:56;;;;;;;2.88;1.10;;;;;;;38.48;32.03;99666.59;7394935;19;20014;-58
2023/08/08 07:19:22;;;;;;;1.38;0.52;;;;;;;38.44;31.72;99660.63;7394910;19;20030;-58
2023/08/08 07:21:49;;;;;;;0.52;0.50;;;;;;;38.09;32.23;99660.91;7396328;19;20010;-58
2023/08/08 07:24:15;;;;;;;0.45;0.45;;;;;;;38.21;32.37;99654.72;7393781;19;20014;-58
2023/08/08 07:26:41;;;;;;;0.82;0.60;;;;;;;38.81;31.68;99658.91;7394599;19;20069;-58
2023/08/08 07:29:07;;;;;;;3.22;1.02;;;;;;;38.88;31.85;99660.59;7395859;19;20026;-59
2023/08/08 07:31:33;;;;;;;0.38;0.38;;;;;;;38.88;31.90;99661.31;7396725;19;20013;-58
2023/08/08 07:33:59;;;;;;;0.30;0.22;;;;;;;39.19;31.97;99657.19;7395526;19;20011;-51
2023/08/08 07:36:25;;;;;;;0.93;0.40;;;;;;;39.56;31.95;99656.84;7395068;19;20015;-51
2023/08/08 07:38:52;;;;;;;1.38;0.40;;;;;;;39.97;31.99;99659.41;7395427;19;20014;-51
2023/08/08 07:41:18;;;;;;;1.17;0.40;;;;;;;40.13;31.68;99649.63;7395474;19;20038;-51
2023/08/08 07:43:44;;;;;;;0.90;0.20;;;;;;;40.24;31.40;99648.44;7392963;19;20011;-51
2023/08/08 07:46:10;;;;;;;5.47;0.32;;;;;;;40.44;30.93;99651.84;7394329;19;20018;-51
2023/08/08 07:48:36;;;;;;;0.43;0.10;;;;;;;40.87;30.92;99663.13;7393318;19;20049;-52
2023/08/08 07:51:03;;;;;;;0.68;0.57;;;;;;;41.16;30.19;99647.69;7393983;19;20025;-51
2023/08/08 07:53:29;;;;;;;0.10;0.10;;;;;;;41.18;29.64;99658.69;7391900;19;20010;-52
2023/08/08 07:55:55;;;;;;;2.60;0.68;;;;;;;41.21;29.27;99649.28;7391739;19;20044;-51
2023/08/08 07:58:25;;;;;;;0.13;0.03;;;;;;;41.50;29.59;99647.66;7396220;19;20014;-51
2023/08/08 08:00:53;;;;;;;1.65;0.65;;;;;;;41.78;29.78;99647.53;7395353;19;20018;-52
2023/08/08 08:03:20;;;;;;;1.05;0.00;;;;;;;41.39;29.91;99637.25;7392144;19;20011;-52
2023/08/08 08:05:46;;;;;;;1.50;0.35;;;;;;;42.50;29.08;99637.06;7393299;19;20017;-52
2023/08/08 08:08:12;;;;;;;0.10;0.10;;;;;;;42.75;29.14;99627.22;7392951;19;20073;-52
2023/08/08 08:10:38;;;;;;;0.38;0.20;;;;;;;42.92;28.86;99628.19;7394769;19;20022;-52
2023/08/08 08:13:05;;;;;;;1.40;0.32;;;;;;;43.07;28.66;99620.31;7393431;19;20340;-52
2023/08/08 08:15:31;;;;;;;2.20;0.47;;;;;;;42.83;27.83;99627.31;7393531;19;20066;-52
2023/08/08 08:17:57;;;;;;;1.60;0.55;;;;;;;42.87;27.70;99627.41;7393329;19;20093;-52
2023/08/08 08:20:23;;;;;;;0.35;0.10;;;;;;;42.61;27.49;99627.00;7393852;19;20082;-52
2023/08/08 08:22:49;;;;;;;0.30;0.10;;;;;;;42.70;27.77;99625.66;7393792;19;20027;-52
2023/08/08 08:25:15;;;;;;;0.10;0.10;;;;;;;42.85;27.91;99615.63;7393193;19;20492;-51
2023/08/08 08:27:42;;;;;;;0.10;0.10;;;;;;;43.18;27.64;99613.88;7395345;19;20778;-51
2023/08/08 08:30:11;;;;;;;0.10;0.00;;;;;;;43.40;27.51;99625.16;7396577;19;20035;-51
2023/08/08 08:32:40;;;;;;;1.30;0.40;;;;;;;43.33;27.10;99623.59;7393827;19;20017;-52
2023/08/08 08:35:07;;;;;;;0.77;0.00;;;;;;;43.32;27.32;99610.41;7398959;19;20019;-52
2023/08/08 08:37:34;;;;;;;3.53;0.75;;;;;;;43.38;26.88;99610.47;7400150;19;20026;-52
2023/08/08 08:40:00;;;;;;;0.10;0.10;;;;;;;43.35;27.08;99614.81;7400184;19;20011;-51
2023/08/08 08:42:28;;;;;;;0.38;0.20;;;;;;;43.05;26.48;99606.38;7404541;19;20010;-52
2023/08/08 08:44:57;;;;;;;1.15;0.30;;;;;;;42.77;26.95;99605.97;7394614;19;20043;-51
2023/08/08 08:47:25;;;;;;;0.77;0.20;;;;;;;42.90;27.31;99608.41;7399535;19;20010;-51
2023/08/08 08:49:56;;;;;;;1.05;0.28;;;;;;;42.81;27.90;99612.63;7399445;19;20032;-51
2023/08/08 08:52:22;;;;;;;0.10;0.10;;;;;;;43.17;27.13;99611.63;7404624;19;20014;-52
2023/08/08 08:54:51;;;;;;;0.10;0.10;;;;;;;41.61;29.31;99617.19;7399969;19;20103;-51
2023/08/08 08:57:19;;;;;;;0.30;0.20;;;;;;;41.56;29.34;99610.50;7400013;19;20011;-52
2023/08/08 08:59:45;;;;;;;0.10;0.05;;;;;;;28.11;48.13;99633.53;7398795;19;20014;-52
2023/08/08 09:02:12;;;;;;;1.15;0.20;;;;;;;40.99;35.53;99602.03;7403073;19;20006;-51
2023/08/08 09:04:39;;;;;;;0.10;0.10;;;;;;;35.93;37.45;99622.72;7396121;19;20485;-51
2023/08/08 09:07:06;;;;;;;3.40;0.38;;;;;;;36.29;37.22;99617.72;7398057;19;20018;-52
2023/08/08 09:09:33;;;;;;;0.50;0.13;;;;;;;35.37;38.78;99615.19;7397815;19;20062;-52
2023/08/08 09:11:59;;;;;;;0.77;0.25;;;;;;;35.05;38.57;99613.75;7401333;19;20482;-52
2023/08/08 09:14:27;;;;;;;1.75;0.08;;;;;;;35.15;39.08;99599.72;7398212;19;20010;-52
2023/08/08 09:16:53;;;;;;;1.33;0.15;;;;;;;35.67;37.69;99604.97;7397593;19;20015;-52
2023/08/08 09:19:21;;;;;;;0.88;0.10;;;;;;;36.45;37.07;99592.31;7397445;19;20019;-52
2023/08/08 09:21:48;;;;;;;0.68;0.20;;;;;;;35.88;37.70;99585.53;7402126;19;20011;-52
2023/08/08 09:24:15;;;;;;;1.45;0.15;;;;;;;36.31;36.53;99585.91;7396397;19;20021;-52
2023/08/08 09:26:42;;;;;;;6.88;0.40;;;;;;;34.93;37.87;99590.00;7399226;19;20363;-52
2023/08/08 09:29:09;;;;;;;4.15;0.25;;;;;;;36.86;37.33;99583.00;7400746;19;20021;-52
2023/08/08 09:31:36;;;;;;;2.50;0.20;;;;;;;36.45;36.79;99583.59;7400624;19;20102;-52
2023/08/08 09:34:04;;;;;;;0.60;0.30;;;;;;;37.48;35.37;99578.78;7397253;19;20011;-52
2023/08/08 09:36:30;;;;;;;0.20;0.10;;;;;;;40.98;32.16;99570.59;7398306;19;20056;-52
2023/08/08 09:38:57;;;;;;;3.58;0.50;;;;;;;40.52;31.00;99571.06;7397398;19;20028;-53
2023/08/08 09:41:24;;;;;;;0.75;0.10;;;;;;;39.53;31.89;99585.28;7400425;19;20006;-51
2023/08/08 09:43:52;;;;;;;2.53;0.30;;;;;;;38.55;33.09;99589.66;7394856;19;20007;-51
2023/08/08 09:46:19;;;;;;;0.45;0.10;;;;;;;38.01;33.06;99581.34;7397348;19;20011;-51
2023/08/08 09:48:46;;;;;;;0.40;0.17;;;;;;;36.54;35.29;99585.38;7397600;19;20459;-51
2023/08/08 09:51:13;;;;;;;0.30;0.13;;;;;;;37.19;36.03;99577.72;7398666;19;20371;-51
2023/08/08 09:53:41;;;;;;;1.30;0.50;;;;;;;37.10;35.50;99575.94;7396960;19;20003;-52
2023/08/08 09:56:07;;;;;;;1.00;0.10;;;;;;;38.09;34.42;99573.63;7397328;19;20359;-52
2023/08/08 09:58:34;;;;;;;1.00;0.20;;;;;;;38.96;33.88;99574.22;7400561;19;20015;-52
2023/08/08 10:01:00;;;;;;;0.63;0.20;;;;;;;41.07;32.03;99567.13;7398772;19;20078;-51
2023/08/08 10:03:28;;;;;;;2.70;0.10;;;;;;;41.13;31.28;99570.16;7398866;19;20367;-50
2023/08/08 10:05:54;;;;;;;0.50;0.10;;;;;;;40.25;31.25;99591.53;7395610;19;20014;-51
2023/08/08 10:08:22;;;;;;;0.10;0.10;;;;;;;39.82;31.11;99584.63;7396795;19;20014;-50
2023/08/08 10:10:50;;;;;;;1.52;0.50;;;;;;;40.50;30.75;99576.81;7396742;19;20083;-51
2023/08/08 10:13:27;;;;;;;0.50;0.10;;;;;;;39.56;31.23;99589.78;7397021;19;20527;-50
2023/08/08 10:15:54;;;;;;;0.98;0.73;;;;;;;41.21;30.01;99608.34;7395852;19;20074;-50
2023/08/08 10:18:22;;;;;;;0.10;0.00;;;;;;;42.52;29.09;99599.03;7395789;19;20655;-50
2023/08/08 10:20:49;;;;;;;1.20;0.30;;;;;;;41.93;30.08;99605.34;7396879;19;20033;-50
2023/08/08 10:23:17;;;;;;;0.30;0.17;;;;;;;42.17;29.40;99597.00;7397897;19;20018;-50
2023/08/08 10:25:45;;;;;;;1.48;0.10;;;;;;;40.36;31.58;99596.94;7399684;19;20021;-50
2023/08/08 10:28:14;;;;;;;0.13;0.10;;;;;;;41.58;29.27;99583.50;7396303;19;20011;-50
2023/08/08 10:30:46;;;;;;;0.10;0.00;;;;;;;39.57;31.03;99585.41;7397004;19;20069;-50
2023/08/08 10:33:20;;;;;;;1.85;0.20;;;;;;;40.53;30.43;99581.28;7396567;19;20011;-50
2023/08/08 10:36:01;;;;;;;1.48;0.50;;;;;;;38.71;32.24;99568.31;7398611;19;20017;-50
2023/08/08 10:38:40;;;;;;;0.30;0.30;;;;;;;40.07;31.24;99565.56;7395304;19;20014;-50
2023/08/08 10:41:12;;;;;;;0.37;0.37;;;;;;;41.34;29.81;99557.47;7398661;19;20490;-50
2023/08/08 10:43:53;;;;;;;1.00;0.00;;;;;;;41.90;29.28;99571.63;7393630;19;20417;-50
2023/08/08 10:46:30;;;;;;;0.10;0.00;;;;;;;41.93;29.12;99570.97;7394853;19;20524;-50
2023/08/08 10:49:05;;;;;;;0.30;0.20;;;;;;;42.74;28.77;99572.97;7395752;19;20006;-50
2023/08/08 10:51:38;;;;;;;0.28;0.10;;;;;;;42.55;27.92;99559.53;7397350;19;20015;-50
2023/08/08 10:54:06;;;;;;;0.40;0.20;;;;;;;39.44;29.76;99559.53;7394894;19;20007;-51
2023/08/08 10:56:35;;;;;;;0.20;0.10;;;;;;;39.05;30.90;99548.97;7394643;19;20017;-50
2023/08/08 10:59:13;;;;;;;0.10;0.10;;;;;;;38.98;31.33;99559.69;7393720;19;20047;-50
2023/08/08 11:01:40;;;;;;;0.30;0.10;;;;;;;40.88;29.96;99553.59;7398316;19;20014;-50
2023/08/08 11:04:07;;;;;;;0.30;0.10;;;;;;;40.93;30.09;99546.41;7397568;19;20048;-50
2023/08/08 11:06:34;;;;;;;0.60;0.13;;;;;;;40.97;30.13;99546.47;7394006;19;20019;-50
2023/08/08 11:09:01;;;;;;;0.10;0.08;;;;;;;42.02;28.47;99543.31;7393701;19;20107;-51
2023/08/08 11:11:27;;;;;;;0.10;0.03;;;;;;;40.24;28.86;99544.09;7396518;19;20364;-51
2023/08/08 11:13:53;;;;;;;1.85;0.17;;;;;;;41.90;27.99;99536.53;7393911;19;20011;-50
2023/08/08 11:16:19;;;;;;;0.00;0.00;;;;;;;43.69;26.78;99535.97;7393848;19;20011;-50
2023/08/08 11:18:45;;;;;;;0.57;0.20;;;;;;;43.54;26.77;99543.16;7394211;19;20021;-52
2023/08/08 11:21:12;;;;;;;1.75;0.10;;;;;;;45.77;24.99;99535.56;7394810;19;20420;-51
2023/08/08 11:23:45;;;;;;;0.55;0.10;;;;;;;46.33;24.39;99548.81;7389904;19;20014;-50
2023/08/08 11:26:11;;;;;;;0.10;0.00;;;;;;;45.87;23.88;99539.97;7394179;19;20074;-50
2023/08/08 11:28:37;;;;;;;0.57;0.20;;;;;;;45.97;24.61;99545.88;7398627;19;20524;-50